This is the latest recevied weather packets stored in our database for station/object KC2TER. If no packets are shown the sender has not sent any weather packets the latest 1 day(s).
| Time | Temp. | Humidity | Pressure | Rain* | Wind** | Luminosity | Snow |
|---|---|---|---|---|---|---|---|
| 1778051282 | 17.22° C | 82% | 1011 hPa | 0 mm | 0.45 m/s, 115° | 0 W/m² | - |
| 1778050979 | 17.22° C | 82% | 1011 hPa | 0 mm | 0 m/s | 0 W/m² | - |
| 1778050676 | 17.22° C | 82% | 1011 hPa | 0 mm | 0.45 m/s, 108° | 0 W/m² | - |
| 1778050374 | 17.22° C | 82% | 1011 hPa | 0 mm | 1.34 m/s, 128° | 0 W/m² | - |
| 1778050070 | 17.22° C | 82% | 1010.8 hPa | 0 mm | 2.24 m/s, 125° | 0 W/m² | - |
| 1778049765 | 17.22° C | 82% | 1010.8 hPa | 0 mm | 0 m/s | 0 W/m² | - |
| 1778049463 | 17.22° C | 82% | 1010.9 hPa | 0 mm | 1.34 m/s, 111° | 0 W/m² | - |
| 1778049161 | 17.22° C | 81% | 1011.1 hPa | 0 mm | 0.45 m/s, 111° | 0 W/m² | - |
| 1778048859 | 17.22° C | 82% | 1010.6 hPa | 0 mm | 1.79 m/s, 134° | 0 W/m² | - |
| 1778048556 | 17.22° C | 81% | 1010.6 hPa | 0 mm | 1.34 m/s, 104° | 0 W/m² | - |
| 1778048252 | 17.22° C | 82% | 1010.9 hPa | 0 mm | 0.45 m/s, 94° | 0 W/m² | - |
| 1778047949 | 17.22° C | 82% | 1010.9 hPa | 0 mm | 0 m/s | 0 W/m² | - |
| 1778047648 | 17.22° C | 82% | 1010.8 hPa | 0 mm | 0.45 m/s, 106° | 0 W/m² | - |
| 1778047344 | 17.22° C | 81% | 1010.8 hPa | 0 mm | 0.45 m/s, 100° | 0 W/m² | - |
| 1778047041 | 17.22° C | 81% | 1011 hPa | 0 mm | 0.89 m/s, 98° | 0 W/m² | - |
| 1778046738 | 17.22° C | 81% | 1011.2 hPa | 0 mm | 0.89 m/s, 111° | 0 W/m² | - |
| 1778046435 | 17.22° C | 81% | 1011.1 hPa | 0 mm | 0.89 m/s, 114° | 0 W/m² | - |
| 1778046131 | 17.22° C | 81% | 1011 hPa | 0 mm | 0.89 m/s, 100° | 0 W/m² | - |
| 1778045829 | 17.22° C | 81% | 1011.1 hPa | 0 mm | 0.89 m/s, 120° | 0 W/m² | - |
| 1778045527 | 17.22° C | 80% | 1011.1 hPa | 0 mm | 1.34 m/s, 144° | 0 W/m² | - |
| 1778045225 | 17.22° C | 80% | 1010.9 hPa | 0 mm | 1.34 m/s, 58° | 0 W/m² | - |
| 1778044923 | 17.22° C | 80% | 1011 hPa | 0 mm | 2.68 m/s, 113° | 0 W/m² | - |
| 1778044620 | 17.78° C | 80% | 1011.4 hPa | 0 mm | 0.45 m/s, 104° | 0 W/m² | - |
| 1778044316 | 17.78° C | 80% | 1011.3 hPa | 0 mm | 0.45 m/s, 102° | 0 W/m² | - |
| 1778044015 | 17.78° C | 79% | 1011.3 hPa | 0 mm | 0.45 m/s, 104° | 0 W/m² | - |
* Rain latest hour (hover to see other rain measurements)
** Current wind speed in m/s (hover to see current wind gust speed)